Time;durP1;ratioP1;P1;durP2;ratioP2;P2;SDS_P1;SDS_P2;PMS_P1;PMS_P2;Temp;Humidity;BMP_temperature;BMP_pressure;BME280_temperature;BME280_humidity;BME280_pressure;Samples;Min_cycle;Max_cycle;Signal;HPM_P1;HPM_P2
2020/12/27 00:02:54;;;;;;;3.21;1.54;;;;;;;1.19;78.25;99204.84;1979113;81;20228;-76
2020/12/27 00:05:56;;;;;;;1.31;1.02;;;;;;;1.17;78.58;99198.81;1979408;81;20317;-76
2020/12/27 00:08:58;;;;;;;2.14;1.04;;;;;;;1.17;78.66;99198.81;1978778;81;20442;-76
2020/12/27 00:12:00;;;;;;;1.31;1.10;;;;;;;1.18;78.83;99187.78;1979208;81;20185;-76
2020/12/27 00:15:02;;;;;;;2.31;1.00;;;;;;;1.15;78.39;99183.44;1979389;81;21082;-76
2020/12/27 00:18:04;;;;;;;1.51;1.17;;;;;;;1.14;78.28;99161.25;1979193;81;20716;-76
2020/12/27 00:21:12;;;;;;;1.52;0.98;;;;;;;1.09;77.95;99160.25;1979771;81;20942;-77
2020/12/27 00:24:13;;;;;;;1.84;1.18;;;;;;;1.08;78.16;99152.56;1979112;81;20354;-76
2020/12/27 00:27:15;;;;;;;2.03;0.90;;;;;;;1.08;78.07;99150.00;1979930;81;20181;-76
2020/12/27 00:30:17;;;;;;;1.00;1.00;;;;;;;1.07;78.14;99138.88;1979321;81;20184;-76
2020/12/27 00:33:18;;;;;;;2.46;1.50;;;;;;;1.03;78.26;99129.38;2021915;71;20735;-77
2020/12/27 00:36:21;;;;;;;1.90;1.22;;;;;;;0.98;78.05;99110.50;1979580;81;20176;-77
2020/12/27 00:39:23;;;;;;;1.52;1.24;;;;;;;0.93;78.06;99099.28;1979655;81;20200;-80
2020/12/27 00:42:25;;;;;;;3.30;1.34;;;;;;;0.88;78.61;99080.38;1979767;81;20389;-77
2020/12/27 00:45:27;;;;;;;2.12;1.00;;;;;;;0.85;78.30;99077.75;1979898;81;20328;-77
2020/12/27 00:48:28;;;;;;;2.79;1.33;;;;;;;0.79;78.72;99052.88;1979791;81;20208;-77
2020/12/27 00:51:30;;;;;;;2.43;1.07;;;;;;;0.80;78.82;99046.94;1979870;81;20184;-77
2020/12/27 00:54:31;;;;;;;3.63;0.93;;;;;;;0.76;78.60;99045.13;1979461;81;20212;-77
2020/12/27 00:57:33;;;;;;;2.26;0.98;;;;;;;0.75;78.96;99028.06;1979616;81;20325;-77
2020/12/27 01:00:35;;;;;;;1.86;1.01;;;;;;;0.72;78.84;99020.31;1979475;81;20486;-77
2020/12/27 01:03:36;;;;;;;1.34;0.87;;;;;;;0.71;78.80;98997.25;1979391;81;20332;-77
2020/12/27 01:06:38;;;;;;;2.11;1.04;;;;;;;0.68;78.72;98992.94;1979010;81;20206;-77
2020/12/27 01:09:40;;;;;;;1.08;0.89;;;;;;;0.66;78.94;98970.72;1979430;82;20317;-77
2020/12/27 01:12:41;;;;;;;0.90;0.90;;;;;;;0.62;78.95;98969.78;1979652;81;20224;-77
2020/12/27 01:15:43;;;;;;;1.61;1.00;;;;;;;0.60;78.96;98951.84;1982409;81;20354;-77
2020/12/27 01:18:49;;;;;;;2.18;1.10;;;;;;;0.60;78.84;98939.09;1982970;81;20356;-78
2020/12/27 01:21:53;;;;;;;3.34;1.24;;;;;;;0.55;78.63;98930.44;1979809;81;20232;-77
2020/12/27 01:24:56;;;;;;;1.49;0.91;;;;;;;0.54;78.58;98900.63;1979151;81;20328;-77
2020/12/27 01:27:58;;;;;;;0.94;0.84;;;;;;;0.54;79.19;98897.19;1980853;81;20350;-77
2020/12/27 01:30:59;;;;;;;1.57;1.27;;;;;;;0.56;79.12;98886.19;1981030;81;20180;-76
2020/12/27 01:34:01;;;;;;;2.21;0.91;;;;;;;0.57;79.17;98887.06;1980670;81;20582;-77
2020/12/27 01:37:03;;;;;;;1.18;0.80;;;;;;;0.57;79.11;98887.91;1980806;81;20176;-76
2020/12/27 01:40:05;;;;;;;2.56;1.15;;;;;;;0.55;78.63;98878.50;1980498;81;20235;-76
2020/12/27 01:43:06;;;;;;;1.69;0.93;;;;;;;0.54;78.77;98879.31;1980763;81;20344;-76
2020/12/27 01:46:08;;;;;;;1.00;0.78;;;;;;;0.51;78.66;98872.41;1980842;81;20245;-77
2020/12/27 01:49:11;;;;;;;2.35;0.80;;;;;;;0.53;78.36;98867.34;1980331;81;20889;-77
2020/12/27 01:52:12;;;;;;;2.11;0.90;;;;;;;0.52;77.88;98870.72;1977919;81;20425;-76
2020/12/27 01:55:15;;;;;;;1.28;0.88;;;;;;;0.55;78.23;98865.72;1977227;81;20575;-76
2020/12/27 01:58:19;;;;;;;1.65;0.80;;;;;;;0.56;77.93;98877.66;1980881;82;20181;-74
2020/12/27 02:01:21;;;;;;;1.17;0.80;;;;;;;0.59;78.09;98875.19;1980355;81;20346;-74
2020/12/27 02:04:24;;;;;;;1.74;0.98;;;;;;;0.66;78.28;98876.19;1980815;81;20435;-75
2020/12/27 02:07:28;;;;;;;0.90;0.80;;;;;;;0.69;77.90;98861.81;1980921;81;20188;-74
2020/12/27 02:10:31;;;;;;;1.66;0.98;;;;;;;0.71;77.47;98844.84;1981000;81;20662;-74
2020/12/27 02:13:32;;;;;;;1.77;0.80;;;;;;;0.74;76.93;98839.81;1980359;81;21114;-74
2020/12/27 02:16:34;;;;;;;3.66;0.80;;;;;;;0.76;76.32;98839.88;1980853;81;20337;-75
2020/12/27 02:19:36;;;;;;;1.91;0.68;;;;;;;0.81;76.66;98815.28;1980834;81;20726;-74
2020/12/27 02:22:40;;;;;;;1.13;0.60;;;;;;;0.82;76.71;98811.91;1980558;81;20212;-75
2020/12/27 02:25:42;;;;;;;1.12;0.70;;;;;;;0.87;76.62;98803.50;1981500;81;20234;-74
2020/12/27 02:28:43;;;;;;;1.72;0.60;;;;;;;0.91;76.63;98799.38;1980874;81;20188;-74
2020/12/27 02:31:45;;;;;;;1.77;0.69;;;;;;;0.97;76.46;98807.16;1981056;81;20217;-74
2020/12/27 02:34:49;;;;;;;0.94;0.62;;;;;;;1.00;76.46;98791.91;1979917;81;20336;-76
2020/12/27 02:37:50;;;;;;;0.86;0.50;;;;;;;1.00;75.20;98776.56;1980681;82;20210;-77
2020/12/27 02:40:52;;;;;;;0.88;0.64;;;;;;;1.04;75.71;98757.03;1980524;81;20637;-76
2020/12/27 02:43:54;;;;;;;0.99;0.50;;;;;;;1.06;75.67;98747.72;1980619;81;20263;-76
2020/12/27 02:46:55;;;;;;;0.56;0.48;;;;;;;1.07;75.70;98740.06;1979303;81;20341;-76
2020/12/27 02:49:57;;;;;;;1.36;0.80;;;;;;;1.09;75.63;98720.56;1979205;82;20618;-77
2020/12/27 02:52:59;;;;;;;0.61;0.54;;;;;;;1.10;75.36;98711.19;1979918;81;20756;-76
2020/12/27 02:56:00;;;;;;;2.09;0.60;;;;;;;1.10;75.38;98698.41;1978517;81;20348;-76
2020/12/27 02:59:02;;;;;;;1.24;0.73;;;;;;;1.10;74.79;98693.28;1980116;82;20348;-77
2020/12/27 03:02:04;;;;;;;2.46;0.60;;;;;;;1.08;74.76;98683.03;1981587;81;20333;-76
2020/12/27 03:05:05;;;;;;;0.81;0.60;;;;;;;1.05;74.22;98672.72;1981238;82;21064;-77
2020/12/27 03:08:07;;;;;;;1.81;0.69;;;;;;;1.07;74.70;98670.19;1980605;81;20196;-77
2020/12/27 03:11:08;;;;;;;1.13;0.53;;;;;;;1.09;74.87;98648.97;1980909;82;20833;-77
2020/12/27 03:14:11;;;;;;;0.73;0.61;;;;;;;1.09;74.57;98643.88;1980782;81;20180;-78
2020/12/27 03:17:13;;;;;;;0.81;0.52;;;;;;;1.13;74.48;98644.78;1982286;81;20365;-77
2020/12/27 03:20:16;;;;;;;1.60;0.64;;;;;;;1.12;74.43;98633.69;1982376;82;20192;-76
2020/12/27 03:23:17;;;;;;;1.60;0.68;;;;;;;1.10;74.23;98617.47;1981544;82;21099;-77
2020/12/27 03:26:19;;;;;;;1.91;0.60;;;;;;;1.11;74.08;98608.09;1982027;82;20320;-76
2020/12/27 03:29:21;;;;;;;1.79;0.68;;;;;;;1.08;74.00;98587.59;1982448;81;20347;-76
2020/12/27 03:32:23;;;;;;;0.77;0.75;;;;;;;1.10;74.35;98583.38;1981573;82;20382;-77
2020/12/27 03:35:25;;;;;;;2.61;0.80;;;;;;;1.06;74.35;98569.66;1981504;82;20348;-76
2020/12/27 03:38:27;;;;;;;1.39;0.63;;;;;;;1.08;74.54;98551.81;1982090;81;20385;-76
2020/12/27 03:41:29;;;;;;;0.94;0.70;;;;;;;1.10;74.78;98555.25;1982087;82;20341;-76
2020/12/27 03:44:31;;;;;;;2.08;0.56;;;;;;;1.08;74.62;98539.03;1981685;81;20295;-76
2020/12/27 03:47:32;;;;;;;0.70;0.70;;;;;;;1.10;74.54;98529.69;1982083;81;21024;-77
2020/12/27 03:50:34;;;;;;;1.67;0.67;;;;;;;1.08;74.50;98529.66;1982448;82;20241;-76
2020/12/27 03:53:36;;;;;;;0.84;0.79;;;;;;;1.10;74.79;98516.91;1981800;82;20188;-76
2020/12/27 03:56:37;;;;;;;2.25;0.79;;;;;;;1.11;75.27;98513.53;1981421;82;20337;-77
2020/12/27 03:59:39;;;;;;;0.81;0.69;;;;;;;1.13;75.54;98504.19;1982276;82;20348;-77
2020/12/27 04:02:41;;;;;;;2.56;1.12;;;;;;;1.16;75.29;98501.69;1981503;82;20325;-76
2020/12/27 04:05:42;;;;;;;2.74;0.82;;;;;;;1.13;75.21;98487.16;1980324;81;20219;-76
2020/12/27 04:08:44;;;;;;;0.73;0.70;;;;;;;1.14;75.70;98478.66;1981029;81;20345;-76
2020/12/27 04:11:46;;;;;;;2.48;0.77;;;;;;;1.15;75.87;98469.28;1980362;82;20184;-76
2020/12/27 04:14:48;;;;;;;4.11;0.94;;;;;;;1.14;76.20;98465.00;1979754;82;20257;-77
2020/12/27 04:17:50;;;;;;;2.00;1.00;;;;;;;1.11;76.43;98460.69;1980704;82;20813;-76
2020/12/27 04:20:51;;;;;;;1.26;0.98;;;;;;;1.07;76.51;98452.94;1980489;82;21191;-76
2020/12/27 04:23:53;;;;;;;1.00;0.90;;;;;;;1.06;76.76;98440.97;1980737;82;20747;-76
2020/12/27 04:26:55;;;;;;;1.13;0.90;;;;;;;1.07;76.71;98432.47;1980758;82;20215;-76
2020/12/27 04:29:56;;;;;;;1.08;0.90;;;;;;;1.08;76.99;98426.56;1980498;82;20180;-76
2020/12/27 04:32:58;;;;;;;1.58;1.01;;;;;;;1.10;76.97;98407.84;1980848;82;20184;-77
2020/12/27 04:36:00;;;;;;;2.24;0.98;;;;;;;1.08;77.13;98399.31;1980305;82;20221;-76
2020/12/27 04:39:02;;;;;;;1.71;0.94;;;;;;;1.07;76.99;98387.31;1980312;82;20767;-77
2020/12/27 04:42:04;;;;;;;1.08;0.93;;;;;;;1.08;77.13;98380.56;1980435;82;20202;-77
2020/12/27 04:45:06;;;;;;;3.70;1.01;;;;;;;1.11;77.49;98370.38;1980245;81;20196;-77
2020/12/27 04:48:07;;;;;;;1.75;1.16;;;;;;;1.08;77.48;98372.88;1981107;82;20192;-77
2020/12/27 04:51:10;;;;;;;1.71;0.88;;;;;;;1.11;77.50;98378.03;1981547;81;20363;-76
2020/12/27 04:54:13;;;;;;;2.54;1.10;;;;;;;1.04;77.26;98355.75;1981683;81;20337;-76
2020/12/27 04:57:18;;;;;;;2.18;1.20;;;;;;;1.05;77.70;98350.66;1980998;81;20366;-76
2020/12/27 05:00:22;;;;;;;2.00;1.20;;;;;;;1.02;78.08;98345.50;1981197;81;20188;-76
2020/12/27 05:03:24;;;;;;;1.85;1.48;;;;;;;1.01;78.09;98320.78;1983932;81;20211;-76
2020/12/27 05:06:26;;;;;;;1.11;0.97;;;;;;;1.02;78.44;98322.50;1980793;81;20340;-76
2020/12/27 05:09:28;;;;;;;1.83;1.11;;;;;;;1.00;78.30;98302.88;1980616;82;20184;-76
2020/12/27 05:12:31;;;;;;;0.97;0.90;;;;;;;1.00;78.25;98300.31;1981131;81;20240;-77
2020/12/27 05:15:34;;;;;;;1.67;0.96;;;;;;;1.06;78.42;98292.75;1981331;81;20196;-77
2020/12/27 05:18:36;;;;;;;1.85;0.90;;;;;;;1.06;78.00;98292.75;1981566;81;20222;-76
2020/12/27 05:21:37;;;;;;;1.39;1.00;;;;;;;1.08;78.19;98276.63;1981618;81;20392;-76
2020/12/27 05:24:39;;;;;;;1.73;0.94;;;;;;;1.09;78.24;98286.00;1980711;81;20910;-77
2020/12/27 05:27:42;;;;;;;1.33;1.01;;;;;;;1.11;78.13;98280.91;1980431;81;20214;-76
2020/12/27 05:30:44;;;;;;;1.63;0.91;;;;;;;1.14;78.16;98275.84;1980811;81;20961;-76
2020/12/27 05:33:47;;;;;;;2.03;1.10;;;;;;;1.13;78.09;98271.56;1980419;81;20443;-76
2020/12/27 05:36:49;;;;;;;1.11;0.88;;;;;;;1.09;78.63;98262.13;1980923;81;20332;-76
2020/12/27 05:39:50;;;;;;;2.20;1.06;;;;;;;1.09;78.88;98246.81;1980658;81;20366;-76
2020/12/27 05:42:52;;;;;;;2.46;1.00;;;;;;;1.07;79.27;98240.78;1981608;81;20214;-76
2020/12/27 05:45:56;;;;;;;2.39;1.20;;;;;;;1.01;79.25;98228.78;1982418;81;20240;-76
2020/12/27 05:48:58;;;;;;;2.36;1.20;;;;;;;1.06;79.44;98232.25;1980739;81;20309;-76
2020/12/27 05:52:00;;;;;;;1.01;1.01;;;;;;;1.07;79.25;98217.78;1981168;81;20196;-77
2020/12/27 05:55:04;;;;;;;1.49;1.10;;;;;;;1.12;79.38;98208.50;1981267;81;20210;-76
2020/12/27 05:58:09;;;;;;;1.70;0.90;;;;;;;1.14;79.27;98188.94;1981175;81;20184;-76
2020/12/27 06:01:20;;;;;;;1.60;0.90;;;;;;;1.13;79.25;98195.75;1980895;81;20209;-77
2020/12/27 06:05:07;;;;;;;1.06;1.03;;;;;;;1.16;79.00;98192.34;1980884;81;20192;-77
2020/12/27 06:08:36;;;;;;;1.32;0.89;;;;;;;1.18;78.92;98190.69;1980780;81;20209;-76
2020/12/27 06:11:47;;;;;;;0.83;0.83;;;;;;;1.20;78.83;98176.22;1980737;81;20180;-76
2020/12/27 06:15:28;;;;;;;1.56;1.29;;;;;;;1.20;78.52;98160.88;1980546;81;20184;-77
2020/12/27 06:18:38;;;;;;;1.38;1.07;;;;;;;1.19;78.24;98147.22;1982790;81;20184;-76
2020/12/27 06:21:41;;;;;;;2.75;1.27;;;;;;;1.20;78.35;98155.75;1981039;81;20659;-77
2020/12/27 06:24:46;;;;;;;1.14;0.76;;;;;;;1.24;79.03;98143.88;1980462;81;20353;-77
2020/12/27 06:27:47;;;;;;;2.24;1.00;;;;;;;1.21;79.53;98131.91;1980928;82;20340;-77
2020/12/27 06:30:56;;;;;;;3.24;0.91;;;;;;;1.24;79.73;98102.97;1980238;81;20196;-76
2020/12/27 06:33:58;;;;;;;2.38;0.80;;;;;;;1.24;79.97;98093.59;1980499;81;20188;-77
2020/12/27 06:37:07;;;;;;;2.32;1.09;;;;;;;1.28;80.07;98086.84;1980503;82;20168;-77
2020/12/27 06:40:10;;;;;;;1.99;1.02;;;;;;;1.25;79.80;98071.44;1981251;81;20233;-77
2020/12/27 06:43:17;;;;;;;2.30;1.55;;;;;;;1.28;79.82;98068.94;1980301;82;20202;-76
2020/12/27 06:46:28;;;;;;;1.01;0.90;;;;;;;1.29;79.71;98060.44;1980429;81;20465;-76
2020/12/27 06:49:30;;;;;;;1.36;0.82;;;;;;;1.31;79.51;98049.38;1980856;81;20572;-76
2020/12/27 06:52:32;;;;;;;1.10;0.89;;;;;;;1.32;78.96;98038.31;1980817;81;20325;-75
2020/12/27 06:55:35;;;;;;;0.80;0.80;;;;;;;1.35;78.80;98040.03;1980435;81;21041;-76
2020/12/27 06:58:38;;;;;;;3.92;0.79;;;;;;;1.39;78.60;98034.09;1980932;81;20180;-76
2020/12/27 07:01:40;;;;;;;1.64;0.76;;;;;;;1.39;77.96;98034.97;1981383;81;20354;-77
2020/12/27 07:04:44;;;;;;;0.70;0.62;;;;;;;1.42;77.81;98027.31;1980060;81;20341;-75
2020/12/27 07:07:48;;;;;;;0.89;0.77;;;;;;;1.41;77.32;98022.19;1981077;82;20651;-77
2020/12/27 07:10:51;;;;;;;1.31;0.70;;;;;;;1.46;77.79;98023.97;1980136;82;20329;-76
2020/12/27 07:13:55;;;;;;;0.88;0.50;;;;;;;1.47;77.56;98014.59;1983817;81;20372;-76
2020/12/27 07:16:56;;;;;;;1.45;0.70;;;;;;;1.49;77.29;98006.09;1980830;81;21002;-74
2020/12/27 07:20:00;;;;;;;1.46;0.66;;;;;;;1.49;76.93;98002.66;1980487;82;20353;-75
2020/12/27 07:23:10;;;;;;;1.71;0.70;;;;;;;1.52;77.24;97979.69;1981129;81;20366;-77
2020/12/27 07:26:12;;;;;;;1.81;0.60;;;;;;;1.56;76.95;97968.63;1980322;81;20336;-75
2020/12/27 07:29:16;;;;;;;0.82;0.78;;;;;;;1.58;77.42;97959.25;1980547;82;20360;-74
2020/12/27 07:32:23;;;;;;;0.61;0.60;;;;;;;1.56;77.02;97948.16;1980725;82;20835;-76
2020/12/27 07:35:24;;;;;;;2.44;0.70;;;;;;;1.54;76.72;97937.06;1980258;81;20827;-75
2020/12/27 07:38:53;;;;;;;1.06;0.70;;;;;;;1.54;76.73;97914.03;1980578;81;20192;-75
2020/12/27 07:41:55;;;;;;;0.74;0.60;;;;;;;1.59;76.91;97908.94;1980439;82;20362;-76
2020/12/27 07:45:02;;;;;;;2.88;0.70;;;;;;;1.57;76.94;97902.97;1980369;82;20792;-74
2020/12/27 07:48:04;;;;;;;2.41;0.70;;;;;;;1.56;76.61;97891.03;1980997;81;20216;-76
2020/12/27 07:51:17;;;;;;;0.66;0.63;;;;;;;1.59;77.06;97874.00;1980904;82;20804;-76
2020/12/27 07:54:24;;;;;;;0.62;0.58;;;;;;;1.63;76.79;97885.13;1991909;71;20161;-82
2020/12/27 07:57:25;;;;;;;1.52;0.71;;;;;;;1.64;76.60;97871.50;1990029;82;20368;-82
2020/12/27 08:00:29;;;;;;;0.70;0.60;;;;;;;1.66;76.74;97864.69;1988448;82;20342;-85
2020/12/27 08:03:31;;;;;;;1.04;0.60;;;;;;;1.65;76.56;97848.47;1989237;82;20338;-85
2020/12/27 08:06:36;;;;;;;0.70;0.65;;;;;;;1.66;76.28;97842.50;1989869;82;20184;-85
2020/12/27 08:09:43;;;;;;;1.70;0.50;;;;;;;1.69;76.49;97829.72;1994555;82;20424;-84
2020/12/27 08:12:51;;;;;;;1.18;0.60;;;;;;;1.68;76.43;97828.03;2021642;71;20353;-83
2020/12/27 08:23:36;;;;;;;2.03;0.45;;;;;;;1.66;75.94;97791.34;1998576;71;20337;-81
2020/12/27 08:26:43;;;;;;;1.13;0.50;;;;;;;1.72;76.07;97780.28;1998096;81;20654;-83
2020/12/27 08:29:45;;;;;;;1.09;0.55;;;;;;;1.70;76.06;97759.81;1995074;81;20204;-83
2020/12/27 08:36:25;;;;;;;1.88;0.40;;;;;;;1.75;76.33;97734.22;2002924;70;20328;-83
2020/12/27 08:39:35;;;;;;;0.52;0.52;;;;;;;1.77;76.00;97732.53;1993609;82;20353;-84
2020/12/27 08:42:45;;;;;;;1.26;0.53;;;;;;;1.81;75.72;97709.53;1991616;70;20866;-75
2020/12/27 08:45:56;;;;;;;2.08;0.56;;;;;;;1.89;75.80;97709.56;1988538;81;20254;-81
2020/12/27 08:49:08;;;;;;;0.69;0.64;;;;;;;1.89;74.87;97699.31;1992204;82;20345;-83
2020/12/27 08:52:23;;;;;;;0.99;0.44;;;;;;;1.93;74.98;97693.34;1992516;82;20313;-81
2020/12/27 08:55:27;;;;;;;1.40;0.50;;;;;;;1.93;74.77;97674.56;1991844;81;20341;-83
2020/12/27 08:58:29;;;;;;;0.50;0.50;;;;;;;1.99;75.19;97674.59;1995747;81;20329;-82
2020/12/27 09:01:31;;;;;;;0.98;0.36;;;;;;;1.98;74.79;97666.06;1993953;81;20329;-82
2020/12/27 09:04:32;;;;;;;1.15;0.51;;;;;;;2.01;74.80;97647.31;1993083;81;20366;-83
2020/12/27 09:07:40;;;;;;;1.49;0.79;;;;;;;2.05;74.55;97634.50;1994222;81;20350;-84
2020/12/27 09:11:06;;;;;;;1.06;0.50;;;;;;;2.10;74.90;97629.38;1997041;70;20406;-82
2020/12/27 09:21:09;;;;;;;1.15;0.50;;;;;;;2.18;74.00;97614.91;1999681;70;20345;-81
2020/12/27 09:24:12;;;;;;;0.75;0.50;;;;;;;2.23;73.82;97599.53;1995069;81;20342;-82
2020/12/27 09:27:14;;;;;;;2.17;0.90;;;;;;;2.26;73.89;97600.38;1993624;81;20345;-82
2020/12/27 09:30:18;;;;;;;0.66;0.40;;;;;;;2.31;73.81;97587.56;1992572;81;20321;-83
2020/12/27 09:33:24;;;;;;;0.60;0.52;;;;;;;2.33;73.66;97557.69;1995370;81;20371;-82
2020/12/27 09:36:26;;;;;;;1.01;0.44;;;;;;;2.38;73.42;97549.16;1995077;81;20321;-83
2020/12/27 09:39:31;;;;;;;0.55;0.54;;;;;;;2.43;73.23;97550.00;1993863;81;20321;-84
2020/12/27 09:42:33;;;;;;;0.65;0.40;;;;;;;2.45;72.84;97534.63;1995217;81;20321;-85
2020/12/27 09:45:39;;;;;;;1.60;0.55;;;;;;;2.52;72.88;97525.22;1994934;81;20337;-83
2020/12/27 09:48:42;;;;;;;1.30;0.50;;;;;;;2.55;72.75;97525.22;1992462;81;20343;-83
2020/12/27 09:51:44;;;;;;;1.69;0.56;;;;;;;2.52;72.63;97499.63;1994024;82;20333;-84
2020/12/27 09:54:51;;;;;;;0.90;0.39;;;;;;;2.58;72.92;97510.69;1992458;81;20526;-85
2020/12/27 09:57:54;;;;;;;0.71;0.40;;;;;;;2.55;72.50;97504.72;1995229;81;20333;-83
2020/12/27 10:00:57;;;;;;;1.01;0.66;;;;;;;2.56;72.50;97489.34;1996237;81;20277;-83
2020/12/27 10:03:58;;;;;;;0.59;0.41;;;;;;;2.61;72.71;97485.03;1994144;81;20323;-84
2020/12/27 10:07:00;;;;;;;1.77;0.45;;;;;;;2.61;72.62;97476.50;1997501;81;20362;-76
2020/12/27 10:10:04;;;;;;;0.50;0.50;;;;;;;2.58;72.50;97456.88;1981184;81;20320;-76
2020/12/27 10:13:06;;;;;;;0.55;0.41;;;;;;;2.59;72.40;97443.22;1980151;81;20321;-77
2020/12/27 10:16:07;;;;;;;0.84;0.45;;;;;;;2.57;72.28;97436.41;1981544;81;20336;-76
2020/12/27 10:19:09;;;;;;;0.95;0.44;;;;;;;2.62;72.60;97424.41;1983989;81;20317;-76
2020/12/27 10:22:11;;;;;;;0.60;0.40;;;;;;;2.66;72.98;97418.41;1980915;81;20398;-76
2020/12/27 10:25:13;;;;;;;0.71;0.50;;;;;;;2.70;72.77;97409.88;1980368;81;20328;-76
2020/12/27 10:28:14;;;;;;;1.36;0.50;;;;;;;2.68;72.08;97412.41;1980982;81;20411;-76
2020/12/27 10:31:17;;;;;;;0.41;0.40;;;;;;;2.69;72.41;97396.22;1977975;81;20321;-76
2020/12/27 10:34:19;;;;;;;1.19;0.40;;;;;;;2.71;72.24;97373.13;1979971;81;20340;-76
2020/12/27 10:37:21;;;;;;;0.49;0.36;;;;;;;2.70;72.23;97381.69;1981138;81;20478;-76
2020/12/27 10:40:23;;;;;;;3.91;0.40;;;;;;;2.70;72.10;97369.72;1983000;81;20337;-77
2020/12/27 10:43:24;;;;;;;1.71;0.50;;;;;;;2.72;72.13;97355.19;1979758;81;20362;-78
2020/12/27 10:46:26;;;;;;;0.49;0.47;;;;;;;2.72;72.33;97349.22;1979496;81;20337;-77
2020/12/27 10:49:27;;;;;;;1.23;0.50;;;;;;;2.72;72.41;97338.97;1979870;81;20827;-77
2020/12/27 10:52:29;;;;;;;4.36;0.40;;;;;;;2.78;72.89;97336.34;1980460;81;20366;-76
2020/12/27 10:55:34;;;;;;;0.35;0.31;;;;;;;2.84;73.18;97338.88;1980130;81;20349;-76
2020/12/27 10:58:35;;;;;;;1.06;0.40;;;;;;;2.89;72.79;97326.88;1980245;81;20439;-77
2020/12/27 11:01:48;;;;;;;1.19;0.43;;;;;;;2.87;72.48;97289.28;1980370;82;20336;-77
2020/12/27 11:04:49;;;;;;;2.00;0.40;;;;;;;2.88;72.50;97312.38;1979439;81;21068;-77
2020/12/27 11:08:05;;;;;;;0.65;0.50;;;;;;;2.90;72.58;97279.03;1980010;81;20353;-76
2020/12/27 11:11:07;;;;;;;0.31;0.31;;;;;;;2.92;72.88;97270.47;1980353;81;20338;-76
2020/12/27 11:14:09;;;;;;;0.90;0.60;;;;;;;2.92;72.66;97262.78;1979841;81;20352;-77
2020/12/27 11:17:10;;;;;;;0.76;0.40;;;;;;;2.94;73.04;97247.38;1980333;82;20878;-77
2020/12/27 11:20:13;;;;;;;0.77;0.40;;;;;;;2.97;72.95;97240.50;1979656;81;20324;-77
2020/12/27 11:23:15;;;;;;;1.58;0.81;;;;;;;2.97;72.99;97222.56;1980111;81;20434;-77
2020/12/27 11:26:20;;;;;;;0.43;0.28;;;;;;;3.03;73.25;97199.44;1980969;82;20382;-77
2020/12/27 11:29:22;;;;;;;0.55;0.49;;;;;;;3.07;73.21;97196.88;1980721;82;20533;-77
2020/12/27 11:32:23;;;;;;;0.47;0.38;;;;;;;3.11;73.19;97188.28;1980832;82;20345;-77
2020/12/27 11:35:25;;;;;;;0.90;0.49;;;;;;;3.14;73.04;97177.97;1979862;81;20381;-76
2020/12/27 11:38:27;;;;;;;0.46;0.46;;;;;;;3.16;73.34;97168.56;1980811;81;20912;-77
2020/12/27 11:41:28;;;;;;;0.90;0.40;;;;;;;3.22;73.18;97141.13;1981230;82;20386;-76
2020/12/27 11:44:30;;;;;;;0.85;0.50;;;;;;;3.18;72.52;97138.63;1980327;81;20389;-76
2020/12/27 11:47:32;;;;;;;0.30;0.30;;;;;;;3.21;72.62;97118.06;1980918;82;20906;-76
2020/12/27 11:50:33;;;;;;;0.55;0.25;;;;;;;3.27;73.08;97115.44;1980577;82;20329;-77
2020/12/27 11:53:35;;;;;;;0.39;0.39;;;;;;;3.28;72.92;97097.47;1980185;81;20466;-76
2020/12/27 11:56:37;;;;;;;0.59;0.40;;;;;;;3.30;72.79;97085.47;1982123;81;20847;-76
2020/12/27 11:59:38;;;;;;;0.85;0.40;;;;;;;3.35;73.07;97077.72;1980589;81;21191;-76
2020/12/27 12:02:41;;;;;;;0.52;0.30;;;;;;;3.40;72.84;97050.28;1981848;81;20376;-76
2020/12/27 12:05:42;;;;;;;0.40;0.40;;;;;;;3.47;72.63;97033.09;1980364;81;20354;-75
2020/12/27 12:08:44;;;;;;;0.30;0.30;;;;;;;3.53;72.07;97027.88;1981409;82;20905;-75
2020/12/27 12:11:48;;;;;;;0.30;0.30;;;;;;;3.59;71.69;97023.50;1981574;82;20361;-76
2020/12/27 12:14:49;;;;;;;2.20;0.30;;;;;;;3.66;71.34;96987.50;1981192;81;20360;-76
2020/12/27 12:17:51;;;;;;;0.76;0.39;;;;;;;3.69;71.06;96988.28;1981211;81;20332;-75
2020/12/27 12:20:53;;;;;;;0.57;0.30;;;;;;;3.75;71.10;96966.78;1980778;81;20980;-76
2020/12/27 12:23:55;;;;;;;0.45;0.32;;;;;;;3.79;71.15;96960.75;1981608;81;20324;-75
2020/12/27 12:26:57;;;;;;;0.36;0.36;;;;;;;3.85;70.89;96946.09;1980655;81;21074;-75
2020/12/27 12:29:59;;;;;;;0.89;0.40;;;;;;;3.90;70.59;96953.72;1981557;81;20401;-76
2020/12/27 12:33:01;;;;;;;0.30;0.30;;;;;;;3.90;70.22;96939.16;1981165;81;20353;-77
2020/12/27 12:36:02;;;;;;;0.30;0.30;;;;;;;3.94;70.10;96914.25;1980399;81;20346;-76
2020/12/27 12:39:05;;;;;;;0.30;0.30;;;;;;;4.00;69.78;96913.34;1981842;81;20329;-76
2020/12/27 12:42:06;;;;;;;0.41;0.28;;;;;;;4.02;69.74;96903.88;1981126;81;20367;-76
2020/12/27 12:45:08;;;;;;;0.44;0.30;;;;;;;4.09;69.65;96896.00;1980488;81;20442;-76
2020/12/27 12:48:10;;;;;;;0.49;0.26;;;;;;;4.11;69.49;96878.84;1980973;81;21280;-76
2020/12/27 12:51:11;;;;;;;0.74;0.55;;;;;;;4.14;68.98;96855.72;1980411;82;20317;-76
2020/12/27 12:54:13;;;;;;;0.20;0.20;;;;;;;4.20;69.40;96837.59;1980685;82;20762;-76
2020/12/27 12:57:15;;;;;;;0.20;0.20;;;;;;;4.22;68.97;96837.56;1981148;81;20345;-76
2020/12/27 13:00:16;;;;;;;0.74;0.20;;;;;;;4.22;68.35;96823.00;1981317;81;20548;-76
2020/12/27 13:03:18;;;;;;;0.10;0.10;;;;;;;4.32;69.23;96825.41;1980657;81;20949;-76
2020/12/27 13:06:20;;;;;;;0.38;0.25;;;;;;;4.32;68.70;96800.56;1980788;82;20923;-76
2020/12/27 13:09:22;;;;;;;0.31;0.30;;;;;;;4.33;68.77;96809.09;1983147;81;21289;-76
2020/12/27 13:12:23;;;;;;;0.50;0.28;;;;;;;4.34;69.63;96778.25;1980031;82;20345;-76
2020/12/27 13:15:26;;;;;;;0.60;0.20;;;;;;;4.34;69.68;96772.25;1981137;81;20348;-77
2020/12/27 13:18:27;;;;;;;0.25;0.25;;;;;;;4.34;70.04;96757.69;1980592;81;20448;-76
2020/12/27 13:21:31;;;;;;;0.30;0.30;;;;;;;4.25;69.47;96745.88;1981448;81;20329;-76
2020/12/27 13:24:33;;;;;;;0.20;0.20;;;;;;;4.25;70.34;96737.34;1983770;81;20362;-77
2020/12/27 13:27:35;;;;;;;0.75;0.20;;;;;;;4.19;70.15;96737.47;1980772;81;20822;-77
2020/12/27 13:30:36;;;;;;;0.30;0.30;;;;;;;4.17;71.06;96749.50;1980870;81;20333;-76
2020/12/27 13:33:38;;;;;;;0.30;0.30;;;;;;;4.07;72.00;96733.44;1980478;81;20362;-77
2020/12/27 13:36:40;;;;;;;4.14;0.30;;;;;;;3.97;72.91;96726.84;1981162;81;20341;-78
2020/12/27 13:39:42;;;;;;;0.32;0.32;;;;;;;3.83;73.83;96716.00;1981508;81;20364;-78
2020/12/27 13:42:44;;;;;;;1.25;0.30;;;;;;;3.71;74.38;96729.94;1980966;81;20333;-78
2020/12/27 13:45:45;;;;;;;0.47;0.30;;;;;;;3.60;75.91;96703.66;1981324;81;20345;-78
2020/12/27 13:48:47;;;;;;;1.09;0.40;;;;;;;3.47;76.94;96705.63;1980865;81;20337;-79
2020/12/27 13:51:54;;;;;;;0.74;0.30;;;;;;;3.34;77.51;96688.78;1980923;81;20332;-79
2020/12/27 13:54:55;;;;;;;0.41;0.31;;;;;;;3.22;78.43;96671.06;1980762;81;20341;-78
2020/12/27 13:57:57;;;;;;;0.49;0.30;;;;;;;3.18;79.14;96669.44;1981133;82;20891;-77
2020/12/27 14:00:59;;;;;;;0.30;0.30;;;;;;;3.13;79.85;96669.53;1981240;81;20828;-77
2020/12/27 14:04:01;;;;;;;0.91;0.50;;;;;;;3.06;80.48;96659.44;1980710;81;20352;-77
2020/12/27 14:07:03;;;;;;;0.26;0.26;;;;;;;3.00;80.80;96648.38;1981406;81;20336;-77
2020/12/27 14:10:04;;;;;;;0.31;0.24;;;;;;;2.95;81.07;96632.25;1981759;81;20320;-77
2020/12/27 14:13:06;;;;;;;0.55;0.30;;;;;;;2.89;81.52;96619.59;1981322;81;20458;-77
2020/12/27 14:16:12;;;;;;;0.40;0.30;;;;;;;2.85;81.65;96615.34;1981335;81;20341;-77
2020/12/27 14:19:14;;;;;;;0.84;0.30;;;;;;;2.81;81.87;96605.22;1981329;82;20360;-81
2020/12/27 14:22:15;;;;;;;0.30;0.30;;;;;;;2.78;82.24;96603.56;1981109;81;20364;-77
2020/12/27 14:25:17;;;;;;;0.30;0.30;;;;;;;2.75;82.19;96584.84;1980485;81;20337;-77
2020/12/27 14:28:19;;;;;;;0.32;0.30;;;;;;;2.75;82.47;96584.84;1980963;81;20908;-76
2020/12/27 14:31:21;;;;;;;0.30;0.30;;;;;;;2.73;82.65;96582.31;1981360;81;20356;-78
2020/12/27 14:34:22;;;;;;;0.30;0.30;;;;;;;2.67;82.43;96557.63;1980905;81;20366;-78
2020/12/27 14:37:24;;;;;;;0.35;0.34;;;;;;;2.66;83.00;96557.66;1981264;81;20874;-77
2020/12/27 14:40:26;;;;;;;1.46;0.30;;;;;;;2.63;83.24;96537.22;1980777;82;20348;-77
2020/12/27 14:43:31;;;;;;;0.30;0.30;;;;;;;2.63;83.44;96524.44;1983914;81;20402;-77
2020/12/27 14:46:33;;;;;;;0.32;0.29;;;;;;;2.59;83.72;96515.97;1981186;81;21086;-76
2020/12/27 14:49:34;;;;;;;0.32;0.32;;;;;;;2.59;83.33;96518.53;1981318;82;20324;-78
2020/12/27 14:52:37;;;;;;;0.22;0.22;;;;;;;2.62;83.53;96513.34;1980742;81;20729;-77